createdAt,value
2019-01-26T00:02:22.668Z,28.20
2019-01-26T00:04:56.013Z,30.97
2019-01-26T00:07:28.450Z,29.00
2019-01-26T00:10:00.523Z,27.37
2019-01-26T00:12:33.611Z,24.47
2019-01-26T00:15:07.460Z,29.00
2019-01-26T00:17:39.837Z,26.65
2019-01-26T00:20:13.031Z,25.62
2019-01-26T00:22:45.984Z,22.85
2019-01-26T00:25:18.650Z,24.43
2019-01-26T00:27:51.067Z,23.60
2019-01-26T00:30:23.372Z,22.62
2019-01-26T00:32:55.521Z,24.23
2019-01-26T00:35:27.550Z,25.80
2019-01-26T00:37:59.606Z,25.08
2019-01-26T00:40:32.036Z,26.30
2019-01-26T00:43:04.070Z,29.77
2019-01-26T00:45:36.171Z,30.65
2019-01-26T00:48:08.757Z,27.55
2019-01-26T00:50:40.830Z,30.60
2019-01-26T00:53:13.530Z,29.75
2019-01-26T00:55:45.684Z,33.92
2019-01-26T00:58:17.953Z,30.27
2019-01-26T01:00:50.258Z,29.18
2019-01-26T01:03:22.364Z,31.10
2019-01-26T01:05:54.647Z,30.97
2019-01-26T01:08:27.085Z,30.40
2019-01-26T01:10:59.316Z,28.42
2019-01-26T01:13:31.347Z,29.20
2019-01-26T01:16:03.296Z,27.40
2019-01-26T01:18:35.539Z,27.27
2019-01-26T01:21:08.293Z,28.07
2019-01-26T01:23:40.537Z,25.70
2019-01-26T01:26:13.040Z,25.70
2019-01-26T01:28:45.180Z,25.77
2019-01-26T01:31:17.688Z,24.80
2019-01-26T01:33:50.163Z,24.43
2019-01-26T01:36:22.562Z,25.48
2019-01-26T01:38:54.902Z,23.60
2019-01-26T01:41:29.994Z,23.25
2019-01-26T01:44:02.259Z,21.48
2019-01-26T01:46:34.373Z,23.87
2019-01-26T01:49:06.483Z,22.70
2019-01-26T01:51:38.524Z,22.77
2019-01-26T01:54:10.827Z,21.90
2019-01-26T01:56:43.307Z,20.32
2019-01-26T01:59:15.315Z,20.40
2019-01-26T02:01:47.669Z,19.92
2019-01-26T02:04:19.709Z,20.00
2019-01-26T02:06:52.059Z,20.30
2019-01-26T02:09:24.342Z,20.97
2019-01-26T02:11:56.494Z,21.00
2019-01-26T02:14:28.746Z,19.50
2019-01-26T02:17:01.623Z,19.45
2019-01-26T02:19:33.915Z,18.42
2019-01-26T02:22:06.477Z,17.15
2019-01-26T02:24:38.840Z,19.10
2019-01-26T02:27:11.595Z,18.90
2019-01-26T02:29:43.973Z,18.07
2019-01-26T02:32:16.103Z,18.10
2019-01-26T02:34:48.208Z,17.00
2019-01-26T02:37:20.351Z,18.02
2019-01-26T02:39:52.557Z,17.02
2019-01-26T02:42:24.937Z,17.80
2019-01-26T02:44:57.204Z,17.48
2019-01-26T02:47:29.614Z,16.67
2019-01-26T02:50:01.542Z,15.45
2019-01-26T02:52:33.969Z,15.20
2019-01-26T02:55:07.175Z,16.70
2019-01-26T02:57:39.209Z,15.08
2019-01-26T03:00:14.212Z,14.43
2019-01-26T03:02:59.162Z,14.78
2019-01-26T03:05:31.601Z,15.00
2019-01-26T03:08:03.933Z,13.45
2019-01-26T03:10:36.122Z,12.88
2019-01-26T03:13:08.804Z,14.25
2019-01-26T03:15:41.619Z,13.65
2019-01-26T03:18:14.335Z,14.05
2019-01-26T03:20:47.557Z,14.10
2019-01-26T03:23:19.783Z,14.98
2019-01-26T03:25:52.839Z,14.25
2019-01-26T03:28:25.296Z,12.82
2019-01-26T03:30:57.642Z,15.05
2019-01-26T03:33:30.575Z,14.53
2019-01-26T03:36:02.738Z,14.03
2019-01-26T03:38:35.419Z,14.23
2019-01-26T03:41:07.421Z,15.45
2019-01-26T03:43:39.905Z,15.55
2019-01-26T03:46:12.126Z,15.63
2019-01-26T03:48:44.611Z,17.02
2019-01-26T03:51:16.657Z,21.52
2019-01-26T03:53:49.142Z,17.27
2019-01-26T03:56:21.242Z,13.88
2019-01-26T03:58:53.366Z,14.73
2019-01-26T04:01:25.560Z,14.28
2019-01-26T04:03:57.585Z,20.60
2019-01-26T04:06:30.011Z,23.10
2019-01-26T04:09:02.049Z,18.90
2019-01-26T04:11:35.889Z,19.57
2019-01-26T04:14:08.719Z,16.77
2019-01-26T04:16:41.292Z,19.35
2019-01-26T04:19:13.340Z,17.40
2019-01-26T04:21:45.553Z,18.40
2019-01-26T04:24:17.603Z,17.77
2019-01-26T04:26:51.829Z,16.45
2019-01-26T04:29:43.399Z,17.55
2019-01-26T04:32:15.884Z,18.85
2019-01-26T04:34:48.059Z,18.15
2019-01-26T04:37:20.423Z,17.98
2019-01-26T04:39:52.590Z,17.37
2019-01-26T04:42:25.940Z,14.85
2019-01-26T04:44:58.320Z,16.50
2019-01-26T04:47:31.176Z,16.82
2019-01-26T04:50:03.292Z,15.65
2019-01-26T04:52:35.505Z,16.35
2019-01-26T04:55:08.156Z,18.30
2019-01-26T04:57:40.281Z,18.65
2019-01-26T05:00:14.823Z,20.57
2019-01-26T05:02:47.285Z,16.37
2019-01-26T05:05:19.520Z,16.20
2019-01-26T05:07:51.622Z,18.35
2019-01-26T05:10:24.637Z,15.85
2019-01-26T05:12:56.604Z,15.68
2019-01-26T05:15:29.044Z,16.90
2019-01-26T05:18:00.966Z,17.27
2019-01-26T05:20:34.225Z,16.73
2019-01-26T05:23:06.478Z,16.30
2019-01-26T05:25:38.707Z,16.23
2019-01-26T05:28:10.648Z,17.95
2019-01-26T05:30:43.105Z,17.50
2019-01-26T05:33:15.449Z,15.60
2019-01-26T05:35:47.619Z,15.48
2019-01-26T05:38:19.679Z,16.50
2019-01-26T05:40:52.614Z,16.77
2019-01-26T05:43:24.706Z,19.48
2019-01-26T05:45:56.664Z,17.77
2019-01-26T05:48:28.982Z,17.82
2019-01-26T05:51:00.885Z,18.27
2019-01-26T05:53:32.853Z,17.73
2019-01-26T05:56:04.917Z,14.45
2019-01-26T05:58:37.232Z,15.55
2019-01-26T06:01:09.734Z,16.52
2019-01-26T06:03:41.957Z,14.43
2019-01-26T06:06:14.342Z,14.78
2019-01-26T06:08:46.625Z,16.62
2019-01-26T06:11:19.032Z,16.85
2019-01-26T06:14:03.324Z,15.13
2019-01-26T06:16:35.626Z,14.83
2019-01-26T06:19:08.098Z,16.23
2019-01-26T06:21:40.149Z,15.68
2019-01-26T06:24:12.290Z,14.63
2019-01-26T06:26:44.194Z,14.50
2019-01-26T06:29:16.568Z,16.62
2019-01-26T06:31:48.568Z,16.12
2019-01-26T06:34:20.724Z,16.48
2019-01-26T06:36:53.311Z,14.47
2019-01-26T06:39:26.010Z,13.65
2019-01-26T06:41:58.367Z,13.68
2019-01-26T06:44:30.808Z,14.75
2019-01-26T06:47:02.957Z,15.00
2019-01-26T06:49:35.121Z,15.65
2019-01-26T06:52:07.940Z,14.87
2019-01-26T06:54:40.165Z,14.83
2019-01-26T06:57:13.048Z,13.85
2019-01-26T06:59:46.176Z,13.78
2019-01-26T07:02:18.625Z,14.30
2019-01-26T07:04:52.535Z,13.95
2019-01-26T07:07:24.880Z,15.83
2019-01-26T07:09:56.899Z,22.13
2019-01-26T07:12:29.666Z,28.67
2019-01-26T07:15:01.751Z,21.75
2019-01-26T07:17:34.486Z,17.25
2019-01-26T07:20:09.766Z,15.75
2019-01-26T07:22:42.098Z,15.15
2019-01-26T07:25:14.153Z,13.38
2019-01-26T07:27:46.910Z,14.75
2019-01-26T07:30:21.575Z,14.15
2019-01-26T07:32:53.794Z,15.30
2019-01-26T07:35:25.981Z,13.93
2019-01-26T07:37:58.502Z,14.00
2019-01-26T07:40:30.904Z,14.83
2019-01-26T07:43:03.545Z,14.83
2019-01-26T07:45:35.913Z,13.40
2019-01-26T07:48:08.193Z,12.78
2019-01-26T07:50:40.504Z,12.93
2019-01-26T07:53:13.041Z,12.35
2019-01-26T07:55:45.055Z,14.13
2019-01-26T07:58:17.574Z,13.05
2019-01-26T08:00:49.889Z,13.95
2019-01-26T08:03:22.265Z,13.22
2019-01-26T08:05:54.731Z,13.30
2019-01-26T08:08:27.204Z,11.97
2019-01-26T08:10:59.330Z,14.53
2019-01-26T08:13:31.489Z,12.18
2019-01-26T08:16:03.822Z,12.75
2019-01-26T08:18:36.408Z,12.25
2019-01-26T08:21:08.985Z,12.55
2019-01-26T08:23:41.313Z,13.62
2019-01-26T08:26:13.726Z,13.98
2019-01-26T08:28:46.453Z,12.80
2019-01-26T08:31:19.224Z,13.05
2019-01-26T08:33:51.348Z,13.22
2019-01-26T08:36:23.736Z,13.32
2019-01-26T08:38:55.636Z,12.47
2019-01-26T08:41:27.838Z,12.63
2019-01-26T08:43:59.820Z,12.85
2019-01-26T08:46:32.081Z,12.75
2019-01-26T08:49:04.100Z,11.83
2019-01-26T08:51:36.472Z,12.25
2019-01-26T08:54:08.535Z,11.55
2019-01-26T08:56:40.554Z,11.65
2019-01-26T08:59:12.578Z,11.18
2019-01-26T09:01:45.210Z,13.25
2019-01-26T09:04:19.240Z,11.73
2019-01-26T09:06:51.654Z,11.60
2019-01-26T09:09:24.217Z,10.63
2019-01-26T09:11:56.288Z,11.33
2019-01-26T09:14:28.692Z,12.10
2019-01-26T09:17:01.107Z,12.13
2019-01-26T09:19:34.322Z,12.50
2019-01-26T09:22:06.470Z,12.73
2019-01-26T09:24:38.682Z,13.48
2019-01-26T09:27:11.155Z,13.65
2019-01-26T09:29:43.321Z,13.30
2019-01-26T09:32:15.933Z,13.43
2019-01-26T09:34:47.966Z,12.07
2019-01-26T09:37:20.246Z,11.38
2019-01-26T09:39:52.404Z,11.65
2019-01-26T09:42:24.755Z,12.68
2019-01-26T09:44:57.040Z,11.73
2019-01-26T09:47:29.502Z,11.75
2019-01-26T09:50:01.655Z,11.80
2019-01-26T09:52:33.703Z,11.25
2019-01-26T09:55:07.526Z,12.40
2019-01-26T09:57:39.767Z,12.18
2019-01-26T10:00:14.484Z,12.28
2019-01-26T10:02:47.061Z,13.05
2019-01-26T10:05:19.399Z,13.55
2019-01-26T10:07:51.962Z,14.23
2019-01-26T10:10:24.345Z,13.78
2019-01-26T10:12:56.736Z,13.70
2019-01-26T10:15:31.287Z,13.62
2019-01-26T10:18:03.759Z,13.48
2019-01-26T10:20:38.548Z,13.65
2019-01-26T10:23:11.101Z,13.43
2019-01-26T10:25:48.619Z,13.83
2019-01-26T10:28:17.116Z,14.43
2019-01-26T10:30:50.535Z,15.83
2019-01-26T10:33:23.882Z,15.43
2019-01-26T10:35:57.512Z,16.30
2019-01-26T10:38:29.756Z,31.65
2019-01-26T10:41:03.068Z,16.50
2019-01-26T10:43:36.813Z,17.95
2019-01-26T10:46:09.005Z,22.30
2019-01-26T10:48:41.294Z,21.52
2019-01-26T10:51:13.444Z,18.70
2019-01-26T10:53:45.959Z,17.00
2019-01-26T10:56:18.112Z,17.57
2019-01-26T10:58:50.730Z,18.25
2019-01-26T11:01:22.839Z,17.02
2019-01-26T11:03:54.988Z,16.95
2019-01-26T11:06:27.602Z,16.75
2019-01-26T11:09:00.077Z,16.10
2019-01-26T11:11:33.027Z,15.40
2019-01-26T11:14:05.037Z,14.75
2019-01-26T11:16:37.529Z,16.45
2019-01-26T11:19:09.881Z,19.30
2019-01-26T11:21:42.455Z,17.75
2019-01-26T11:24:14.637Z,17.27
2019-01-26T11:26:49.485Z,17.07
2019-01-26T11:29:20.334Z,16.48
2019-01-26T11:35:32.290Z,16.45
2019-01-26T11:38:11.444Z,17.37
2019-01-26T11:41:08.267Z,16.93
2019-01-26T11:43:43.840Z,18.98
2019-01-26T11:46:17.358Z,21.25
2019-01-26T11:48:50.039Z,18.32
2019-01-26T11:51:23.557Z,18.42
2019-01-26T11:53:55.857Z,18.92
2019-01-26T11:56:29.506Z,19.17
2019-01-26T11:59:01.903Z,19.55
2019-01-26T12:01:35.204Z,20.27
2019-01-26T12:04:08.726Z,21.37
2019-01-26T12:06:42.042Z,24.55
2019-01-26T12:09:15.660Z,21.33
2019-01-26T12:11:47.817Z,26.00
2019-01-26T12:14:19.935Z,34.13
2019-01-26T12:16:51.946Z,27.42
2019-01-26T12:19:24.301Z,25.95
2019-01-26T12:21:56.261Z,27.42
2019-01-26T12:24:28.886Z,28.32
2019-01-26T12:27:00.823Z,29.25
2019-01-26T12:29:34.062Z,27.85
2019-01-26T12:32:06.464Z,28.25
2019-01-26T12:34:39.091Z,26.40
2019-01-26T12:37:12.345Z,25.37
2019-01-26T12:39:44.718Z,24.27
2019-01-26T12:42:17.048Z,24.67
2019-01-26T12:44:49.304Z,25.30
2019-01-26T12:47:22.165Z,25.15
2019-01-26T12:49:54.303Z,25.90
2019-01-26T12:52:26.270Z,26.90
2019-01-26T12:54:58.335Z,26.05
2019-01-26T12:57:30.348Z,26.65
2019-01-26T13:00:02.587Z,28.02
2019-01-26T13:02:34.771Z,28.45
2019-01-26T13:05:08.752Z,28.17
2019-01-26T13:07:41.023Z,27.77
2019-01-26T13:10:16.504Z,26.73
2019-01-26T13:12:49.115Z,83.27
2019-01-26T13:15:21.404Z,40.58
2019-01-26T13:17:54.737Z,29.57
2019-01-26T13:20:28.844Z,30.05
2019-01-26T13:23:00.931Z,30.97
2019-01-26T13:25:33.280Z,32.45
2019-01-26T13:28:07.416Z,32.35
2019-01-26T13:30:39.773Z,31.75
2019-01-26T13:33:32.535Z,30.82
2019-01-26T13:36:04.707Z,30.20
2019-01-26T13:38:37.305Z,28.92
2019-01-26T13:41:09.738Z,28.87
2019-01-26T13:43:41.980Z,29.45
2019-01-26T13:46:14.737Z,107.78
2019-01-26T13:48:48.009Z,63.68
2019-01-26T13:51:20.716Z,28.83
2019-01-26T13:53:52.981Z,28.75
2019-01-26T13:56:25.712Z,28.35
2019-01-26T13:58:57.796Z,26.85
2019-01-26T14:01:29.837Z,27.22
2019-01-26T14:04:02.086Z,27.95
2019-01-26T14:06:35.954Z,27.15
2019-01-26T14:09:09.370Z,27.58
2019-01-26T14:11:41.567Z,27.13
2019-01-26T14:14:13.612Z,26.97
2019-01-26T14:16:46.892Z,26.07
2019-01-26T14:19:18.933Z,24.92
2019-01-26T14:21:51.194Z,25.65
2019-01-26T14:24:23.372Z,27.77
2019-01-26T14:26:55.384Z,26.12
2019-01-26T14:29:27.868Z,26.75
2019-01-26T14:32:00.018Z,25.35
2019-01-26T14:34:32.075Z,24.52
2019-01-26T14:37:04.414Z,24.12
2019-01-26T14:39:39.871Z,25.15
2019-01-26T14:42:11.904Z,24.55
2019-01-26T14:44:43.977Z,24.32
2019-01-26T14:47:16.620Z,25.08
2019-01-26T14:49:49.134Z,25.57
2019-01-26T14:52:21.520Z,24.43
2019-01-26T14:54:53.992Z,26.12
2019-01-26T14:57:25.907Z,24.67
2019-01-26T14:59:57.918Z,25.52
2019-01-26T15:02:29.966Z,24.85
2019-01-26T15:05:02.606Z,24.77
2019-01-26T15:07:34.872Z,24.75
2019-01-26T15:10:09.372Z,25.15
2019-01-26T15:12:41.858Z,24.37
2019-01-26T15:15:16.648Z,28.65
2019-01-26T15:17:48.893Z,38.40
2019-01-26T15:20:24.068Z,24.52
2019-01-26T15:22:56.311Z,23.35
2019-01-26T15:25:28.359Z,23.60
2019-01-26T15:28:01.821Z,22.15
2019-01-26T15:30:36.324Z,22.48
2019-01-26T15:33:09.232Z,22.70
2019-01-26T15:35:41.374Z,23.42
2019-01-26T15:38:13.521Z,23.65
2019-01-26T15:40:46.115Z,23.83
2019-01-26T15:43:18.401Z,23.75
2019-01-26T15:45:58.314Z,24.32
2019-01-26T15:48:30.822Z,22.40
2019-01-26T15:51:04.209Z,23.80
2019-01-26T15:53:36.584Z,22.62
2019-01-26T15:56:09.117Z,23.42
2019-01-26T15:58:41.056Z,35.78
2019-01-26T16:01:13.217Z,64.53
2019-01-26T16:03:45.287Z,25.55
2019-01-26T16:06:17.497Z,24.15
2019-01-26T16:08:50.072Z,24.95
2019-01-26T16:11:22.252Z,24.57
2019-01-26T16:13:54.434Z,26.55
2019-01-26T16:16:26.837Z,25.80
2019-01-26T16:18:58.775Z,25.20
2019-01-26T16:21:31.040Z,26.10
2019-01-26T16:24:03.022Z,25.30
2019-01-26T16:26:35.111Z,24.40
2019-01-26T16:29:07.244Z,25.35
2019-01-26T16:31:39.335Z,25.30
2019-01-26T16:34:11.640Z,25.12
2019-01-26T16:36:43.898Z,24.70
2019-01-26T16:39:16.839Z,24.67
2019-01-26T16:41:49.068Z,24.85
2019-01-26T16:44:21.328Z,26.45
2019-01-26T16:46:53.818Z,25.97
2019-01-26T16:49:26.520Z,24.92
2019-01-26T16:51:58.463Z,24.45
2019-01-26T16:54:30.663Z,25.12
2019-01-26T16:57:02.633Z,24.60
2019-01-26T16:59:34.587Z,25.35
2019-01-26T17:02:06.635Z,25.97
2019-01-26T17:04:38.569Z,25.95
2019-01-26T17:07:11.615Z,25.65
2019-01-26T17:09:44.176Z,30.48
2019-01-26T17:12:16.453Z,85.87
2019-01-26T17:15:08.988Z,26.52
2019-01-26T17:17:41.452Z,25.30
2019-01-26T17:20:17.016Z,23.10
2019-01-26T17:22:49.465Z,23.35
2019-01-26T17:25:21.955Z,23.12
2019-01-26T17:27:54.445Z,23.12
2019-01-26T17:30:29.590Z,22.98
2019-01-26T17:33:07.387Z,23.47
2019-01-26T17:35:34.915Z,23.22
2019-01-26T17:38:07.290Z,23.55
2019-01-26T17:40:39.773Z,22.77
2019-01-26T17:43:12.259Z,22.37
2019-01-26T17:45:44.536Z,24.00
2019-01-26T17:48:17.737Z,23.95
2019-01-26T17:50:50.271Z,23.35
2019-01-26T17:53:22.318Z,23.12
2019-01-26T17:55:54.593Z,23.73
2019-01-26T17:58:27.091Z,23.35
2019-01-26T18:00:59.459Z,24.98
2019-01-26T18:03:31.690Z,24.37
2019-01-26T18:06:03.876Z,24.25
2019-01-26T18:08:36.027Z,25.05
2019-01-26T18:11:08.340Z,23.70
2019-01-26T18:13:40.579Z,25.05
2019-01-26T18:16:12.708Z,26.17
2019-01-26T18:18:45.156Z,25.45
2019-01-26T18:21:17.241Z,25.23
2019-01-26T18:23:49.567Z,25.08
2019-01-26T18:26:22.282Z,25.82
2019-01-26T18:28:54.426Z,25.80
2019-01-26T18:31:26.880Z,25.85
2019-01-26T18:33:59.302Z,28.10
2019-01-26T18:36:31.649Z,25.48
2019-01-26T18:39:04.126Z,27.07
2019-01-26T18:41:37.858Z,24.60
2019-01-26T18:44:10.059Z,24.00
2019-01-26T18:46:42.087Z,24.43
2019-01-26T18:49:14.358Z,26.15
2019-01-26T18:51:47.068Z,24.30
2019-01-26T18:54:19.309Z,26.45
2019-01-26T18:56:51.766Z,24.80
2019-01-26T18:59:24.364Z,25.95
2019-01-26T19:01:56.946Z,25.52
2019-01-26T19:04:29.720Z,24.87
2019-01-26T19:07:01.937Z,23.77
2019-01-26T19:09:34.383Z,25.02
2019-01-26T19:12:06.739Z,23.73
2019-01-26T19:14:39.206Z,25.75
2019-01-26T19:17:11.627Z,25.05
2019-01-26T19:19:44.427Z,26.37
2019-01-26T19:22:16.597Z,26.35
2019-01-26T19:24:48.966Z,24.65
2019-01-26T19:27:21.238Z,26.30
2019-01-26T19:29:54.220Z,25.80
2019-01-26T19:32:26.263Z,24.67
2019-01-26T19:34:58.576Z,25.40
2019-01-26T19:37:30.716Z,24.82
2019-01-26T19:40:03.216Z,25.15
2019-01-26T19:42:35.261Z,25.45
2019-01-26T19:45:09.916Z,24.63
2019-01-26T19:47:42.160Z,26.77
2019-01-26T19:50:17.345Z,25.90
2019-01-26T19:52:49.793Z,25.75
2019-01-26T19:55:24.206Z,26.57
2019-01-26T19:57:56.501Z,25.48
2019-01-26T20:00:29.012Z,26.90
2019-01-26T20:03:01.043Z,26.65
2019-01-26T20:05:33.718Z,27.25
2019-01-26T20:08:07.518Z,27.25
2019-01-26T20:10:41.009Z,25.82
2019-01-26T20:13:13.016Z,26.35
2019-01-26T20:15:45.290Z,27.00
2019-01-26T20:18:17.425Z,28.17
2019-01-26T20:20:49.898Z,29.63
2019-01-26T20:23:22.128Z,29.40
2019-01-26T20:25:54.481Z,29.67
2019-01-26T20:28:26.680Z,27.95
2019-01-26T20:30:58.981Z,30.12
2019-01-26T20:33:31.198Z,30.92
2019-01-26T20:36:03.345Z,30.70
2019-01-26T20:38:35.475Z,29.50
2019-01-26T20:41:08.066Z,30.57
2019-01-26T20:43:40.500Z,29.40
2019-01-26T20:46:13.360Z,29.18
2019-01-26T20:48:45.446Z,30.57
2019-01-26T20:51:24.704Z,29.85
2019-01-26T20:53:51.413Z,28.98
2019-01-26T20:56:23.733Z,28.62
2019-01-26T20:58:55.758Z,28.30
2019-01-26T21:01:27.863Z,27.65
2019-01-26T21:03:59.888Z,28.75
2019-01-26T21:06:33.021Z,28.23
2019-01-26T21:09:06.338Z,28.77
2019-01-26T21:11:39.901Z,29.20
2019-01-26T21:14:12.018Z,27.65
2019-01-26T21:16:44.675Z,29.12
2019-01-26T21:19:16.969Z,29.32
2019-01-26T21:21:49.259Z,27.05
2019-01-26T21:24:21.724Z,26.85
2019-01-26T21:26:54.347Z,28.00
2019-01-26T21:29:26.885Z,27.98
2019-01-26T21:31:59.077Z,30.50
2019-01-26T21:34:31.781Z,30.25
2019-01-26T21:37:03.999Z,31.10
2019-01-26T21:39:36.356Z,30.90
2019-01-26T21:42:08.491Z,32.35
2019-01-26T21:44:40.809Z,31.07
2019-01-26T21:47:12.976Z,31.57
2019-01-26T21:49:45.138Z,34.25
2019-01-26T21:52:17.666Z,32.67
2019-01-26T21:54:50.108Z,32.93
2019-01-26T21:57:22.403Z,33.13
2019-01-26T21:59:54.540Z,32.78
2019-01-26T22:02:26.621Z,31.15
2019-01-26T22:04:58.928Z,35.40
2019-01-26T22:07:31.268Z,32.63
2019-01-26T22:10:03.770Z,31.57
2019-01-26T22:12:36.226Z,33.78
2019-01-26T22:15:10.722Z,32.05
2019-01-26T22:17:43.144Z,32.65
2019-01-26T22:20:17.788Z,33.25
2019-01-26T22:22:50.717Z,33.85
2019-01-26T22:25:22.766Z,34.60
2019-01-26T22:27:56.015Z,35.55
2019-01-26T22:30:31.279Z,36.28
2019-01-26T22:33:03.830Z,36.65
2019-01-26T22:35:36.036Z,36.68
2019-01-26T22:38:08.654Z,36.08
2019-01-26T22:40:40.678Z,37.53
2019-01-26T22:43:13.018Z,39.33
2019-01-26T22:45:45.804Z,39.50
2019-01-26T22:48:18.137Z,36.90
2019-01-26T22:50:50.112Z,37.50
2019-01-26T22:53:22.619Z,38.17
2019-01-26T22:55:54.860Z,37.40
2019-01-26T22:58:27.221Z,36.77
2019-01-26T23:01:02.074Z,37.17
2019-01-26T23:03:38.648Z,36.17
2019-01-26T23:06:13.055Z,36.25
2019-01-26T23:08:46.476Z,36.53
2019-01-26T23:11:21.598Z,39.75
2019-01-26T23:13:57.723Z,38.53
2019-01-26T23:16:32.349Z,38.63
2019-01-26T23:19:07.319Z,36.65
2019-01-26T23:21:42.790Z,36.23
2019-01-26T23:24:17.748Z,37.33
2019-01-26T23:26:52.832Z,38.65
2019-01-26T23:29:27.415Z,36.73
2019-01-26T23:31:59.744Z,37.58
2019-01-26T23:34:31.741Z,38.05
2019-01-26T23:37:04.091Z,39.23
2019-01-26T23:39:36.123Z,39.38
2019-01-26T23:42:08.450Z,39.95
2019-01-26T23:44:40.467Z,38.02
2019-01-26T23:47:12.820Z,37.33
2019-01-26T23:49:45.324Z,37.67
2019-01-26T23:52:17.468Z,39.00
2019-01-26T23:54:49.910Z,39.18
2019-01-26T23:57:22.070Z,38.50
2019-01-26T23:59:54.225Z,38.55
